createdAt,value
2023-11-27T00:02:26.948Z,3.79
2023-11-27T00:07:29.940Z,3.90
2023-11-27T00:12:33.039Z,3.43
2023-11-27T00:17:37.407Z,3.54
2023-11-27T00:22:40.605Z,3.49
2023-11-27T00:27:44.349Z,3.34
2023-11-27T00:32:48.939Z,3.21
2023-11-27T00:37:52.703Z,3.68
2023-11-27T00:42:55.688Z,3.77
2023-11-27T00:48:00.610Z,3.67
2023-11-27T00:53:03.587Z,2.97
2023-11-27T00:58:07.928Z,3.00
2023-11-27T01:03:12.794Z,3.22
2023-11-27T01:08:16.056Z,3.40
2023-11-27T01:13:19.138Z,3.37
2023-11-27T01:18:23.472Z,3.42
2023-11-27T01:23:26.423Z,3.52
2023-11-27T01:28:29.360Z,3.59
2023-11-27T01:33:34.715Z,3.34
2023-11-27T01:38:38.038Z,3.20
2023-11-27T01:43:42.029Z,3.34
2023-11-27T01:48:46.431Z,3.34
2023-11-27T01:53:51.216Z,3.56
2023-11-27T01:58:56.408Z,3.42
2023-11-27T02:04:01.313Z,3.40
2023-11-27T02:09:04.506Z,3.43
2023-11-27T02:14:07.442Z,3.23
2023-11-27T02:19:12.047Z,3.44
2023-11-27T02:24:16.745Z,3.47
2023-11-27T02:29:19.747Z,3.31
2023-11-27T02:34:22.746Z,3.56
2023-11-27T02:39:27.493Z,3.40
2023-11-27T02:44:30.417Z,3.59
2023-11-27T02:49:33.435Z,2.99
2023-11-27T02:54:37.734Z,3.04
2023-11-27T02:59:40.789Z,3.11
2023-11-27T03:04:43.744Z,3.00
2023-11-27T03:09:49.669Z,3.05
2023-11-27T03:14:52.708Z,3.06
2023-11-27T03:19:55.615Z,3.20
2023-11-27T03:25:00.399Z,3.13
2023-11-27T03:30:05.699Z,3.02
2023-11-27T03:35:10.877Z,3.00
2023-11-27T03:40:15.533Z,3.01
2023-11-27T03:45:18.517Z,2.92
2023-11-27T03:50:21.442Z,3.25
2023-11-27T03:55:26.763Z,3.21
2023-11-27T04:00:29.818Z,3.24
2023-11-27T04:05:32.742Z,2.65
2023-11-27T04:10:37.426Z,2.81
2023-11-27T04:15:40.885Z,2.47
2023-11-27T04:20:44.996Z,2.90
2023-11-27T04:25:49.388Z,2.76
2023-11-27T04:30:52.324Z,2.68
2023-11-27T04:35:55.512Z,2.71
2023-11-27T04:40:59.773Z,2.42
2023-11-27T04:46:02.909Z,2.38
2023-11-27T04:51:06.453Z,2.14
2023-11-27T04:56:11.860Z,1.88
2023-11-27T05:01:14.806Z,1.92
2023-11-27T05:06:17.756Z,1.99
2023-11-27T05:11:22.420Z,2.15
2023-11-27T05:16:25.391Z,2.08
2023-11-27T05:21:28.571Z,2.03
2023-11-27T05:26:32.877Z,2.01
2023-11-27T05:31:36.005Z,2.15
2023-11-27T05:36:39.046Z,2.07
2023-11-27T05:41:43.847Z,2.02
2023-11-27T05:46:46.881Z,2.10
2023-11-27T05:51:50.039Z,2.17
2023-11-27T05:56:55.557Z,2.08
2023-11-27T06:01:59.239Z,2.19
2023-11-27T06:07:02.330Z,2.15
2023-11-27T06:12:07.340Z,2.16
2023-11-27T06:17:10.400Z,2.22
2023-11-27T06:22:13.684Z,2.21
2023-11-27T06:27:18.068Z,2.25
2023-11-27T06:32:22.555Z,2.26
2023-11-27T06:37:25.790Z,2.32
2023-11-27T06:42:31.336Z,2.36
2023-11-27T06:47:34.327Z,2.27
2023-11-27T06:52:37.514Z,2.29
2023-11-27T06:57:42.738Z,2.33
2023-11-27T07:02:46.267Z,2.37
2023-11-27T07:07:49.272Z,2.39
2023-11-27T07:12:53.820Z,2.49
2023-11-27T07:18:09.484Z,2.45
2023-11-27T07:23:19.601Z,3.12
2023-11-27T07:28:24.374Z,3.46
2023-11-27T07:33:27.626Z,3.24
2023-11-27T07:38:30.533Z,3.38
2023-11-27T07:43:35.604Z,3.67
2023-11-27T07:48:39.404Z,3.17
2023-11-27T07:53:42.600Z,2.85
2023-11-27T07:58:46.948Z,2.74
2023-11-27T08:03:50.111Z,2.77
2023-11-27T08:08:55.180Z,2.57
2023-11-27T08:13:59.597Z,2.52
2023-11-27T08:19:02.570Z,2.63
2023-11-27T08:24:07.240Z,2.68
2023-11-27T08:29:16.335Z,2.74
2023-11-27T08:34:20.931Z,2.86
2023-11-27T08:39:25.555Z,2.80
2023-11-27T08:44:30.320Z,2.72
2023-11-27T08:49:33.376Z,2.66
2023-11-27T08:54:36.490Z,2.65
2023-11-27T08:59:40.974Z,2.65
2023-11-27T09:04:44.032Z,2.67
2023-11-27T09:09:46.976Z,2.71
2023-11-27T09:14:52.442Z,2.70
2023-11-27T09:19:56.509Z,2.47
2023-11-27T09:24:59.545Z,2.62
2023-11-27T09:30:04.260Z,2.58
2023-11-27T09:35:09.916Z,2.53
2023-11-27T09:40:14.870Z,2.55
2023-11-27T09:45:20.117Z,2.64
2023-11-27T09:50:23.838Z,2.54
2023-11-27T09:55:28.495Z,2.59
2023-11-27T10:00:35.135Z,2.51
2023-11-27T10:05:39.154Z,2.43
2023-11-27T10:10:45.416Z,2.30
2023-11-27T10:15:50.790Z,2.02
2023-11-27T10:20:53.898Z,2.09
2023-11-27T10:26:00.320Z,1.93
2023-11-27T10:31:05.341Z,1.85
2023-11-27T10:36:10.853Z,1.87
2023-11-27T10:41:15.516Z,1.64
2023-11-27T10:46:20.760Z,1.79
2023-11-27T10:51:24.515Z,1.47
2023-11-27T10:56:31.859Z,1.24
2023-11-27T11:01:40.426Z,1.21
2023-11-27T11:06:47.393Z,1.09
2023-11-27T11:11:51.290Z,1.18
2023-11-27T11:17:09.199Z,1.17
2023-11-27T11:22:24.994Z,1.18
2023-11-27T11:27:36.803Z,1.06
2023-11-27T11:32:41.471Z,0.89
2023-11-27T11:37:50.329Z,1.03
2023-11-27T11:42:53.596Z,0.79
2023-11-27T11:48:01.189Z,0.84
2023-11-27T11:53:27.636Z,1.06
2023-11-27T11:58:31.143Z,0.78
2023-11-27T12:03:37.224Z,0.70
2023-11-27T12:08:46.004Z,0.38
2023-11-27T12:13:48.998Z,0.54
2023-11-27T12:18:55.813Z,0.58
2023-11-27T12:23:59.311Z,0.44
2023-11-27T12:29:02.644Z,0.36
2023-11-27T12:34:07.013Z,0.37
2023-11-27T12:39:12.312Z,0.34
2023-11-27T12:44:17.508Z,0.25
2023-11-27T12:49:23.700Z,0.26
2023-11-27T12:54:32.722Z,0.24
2023-11-27T12:59:40.980Z,0.20
2023-11-27T13:04:45.501Z,-0.06
2023-11-27T13:09:48.439Z,0.05
2023-11-27T13:14:51.483Z,0.14
2023-11-27T13:19:57.115Z,0.09
2023-11-27T13:25:00.700Z,0.02
2023-11-27T13:30:03.955Z,0.05
2023-11-27T13:35:09.261Z,0.05
2023-11-27T13:40:13.634Z,0.07
2023-11-27T13:45:17.596Z,-0.08
2023-11-27T13:50:22.168Z,0.08
2023-11-27T13:55:25.194Z,0.03
2023-11-27T14:00:28.962Z,0.06
2023-11-27T14:05:38.600Z,-0.06
2023-11-27T14:16:14.757Z,-0.10
2023-11-27T14:21:47.103Z,0.05
2023-11-27T14:27:21.367Z,-0.16
2023-11-27T14:32:25.837Z,0.01
2023-11-27T14:37:31.605Z,0.06
2023-11-27T14:42:34.724Z,0.04
2023-11-27T14:47:39.271Z,-0.07
2023-11-27T14:52:44.458Z,0.00
2023-11-27T14:57:49.189Z,-0.20
2023-11-27T15:02:56.342Z,-0.06
2023-11-27T15:08:00.846Z,-0.11
2023-11-27T15:13:03.958Z,-0.06
2023-11-27T15:18:08.500Z,-0.03
2023-11-27T15:23:11.798Z,-0.03
2023-11-27T15:28:15.967Z,-0.06
2023-11-27T15:33:20.423Z,0.00
2023-11-27T15:38:25.925Z,0.00
2023-11-27T15:43:29.387Z,-0.02
2023-11-27T15:48:33.857Z,-0.01
2023-11-27T15:53:36.845Z,-0.04
2023-11-27T15:58:40.255Z,0.03
2023-11-27T16:03:44.653Z,-0.13
2023-11-27T16:08:47.810Z,0.00
2023-11-27T16:13:54.683Z,-0.03
2023-11-27T16:19:02.541Z,0.04
2023-11-27T16:24:09.862Z,-0.05
2023-11-27T16:29:12.913Z,-0.12
2023-11-27T16:34:17.338Z,-0.08
2023-11-27T16:39:21.645Z,-0.03
2023-11-27T16:44:24.556Z,-0.06
2023-11-27T16:49:28.872Z,-0.08
2023-11-27T16:54:33.775Z,-0.07
2023-11-27T16:59:36.713Z,-0.13
2023-11-27T17:04:41.113Z,-0.06
2023-11-27T17:09:44.144Z,-0.03
2023-11-27T17:14:47.500Z,-0.20
2023-11-27T17:19:51.969Z,-0.10
2023-11-27T17:24:54.974Z,-0.01
2023-11-27T17:29:57.948Z,-0.04
2023-11-27T17:35:09.648Z,0.01
2023-11-27T17:40:14.306Z,0.05
2023-11-27T17:45:18.037Z,0.05
2023-11-27T17:50:24.162Z,0.13
2023-11-27T17:55:34.057Z,0.20
2023-11-27T18:00:43.247Z,0.22
2023-11-27T18:05:47.560Z,0.23
2023-11-27T18:10:51.078Z,0.26
2023-11-27T18:15:54.027Z,0.31
2023-11-27T18:20:58.369Z,0.34
2023-11-27T18:26:05.240Z,0.29
2023-11-27T18:31:09.355Z,0.34
2023-11-27T18:36:14.445Z,0.31
2023-11-27T18:41:18.893Z,0.29
2023-11-27T18:46:23.457Z,0.26
2023-11-27T18:51:27.723Z,0.23
2023-11-27T18:56:30.740Z,0.22
2023-11-27T19:01:33.829Z,0.19
2023-11-27T19:06:38.952Z,0.13
2023-11-27T19:11:41.836Z,0.10
2023-11-27T19:16:45.913Z,0.09
2023-11-27T19:21:51.753Z,0.02
2023-11-27T19:26:54.727Z,0.03
2023-11-27T19:31:57.769Z,0.04
2023-11-27T19:37:04.840Z,0.06
2023-11-27T19:42:09.865Z,0.11
2023-11-27T19:47:14.782Z,0.13
2023-11-27T19:52:19.272Z,0.13
2023-11-27T19:57:22.190Z,0.20
2023-11-27T20:02:26.172Z,0.22
2023-11-27T20:07:30.611Z,0.20
2023-11-27T20:12:33.574Z,0.24
2023-11-27T20:17:36.584Z,0.22
2023-11-27T20:22:41.491Z,0.17
2023-11-27T20:27:45.447Z,0.21
2023-11-27T20:32:48.521Z,0.20
2023-11-27T20:37:55.353Z,0.20
2023-11-27T20:43:00.241Z,0.21
2023-11-27T20:48:04.234Z,0.16
2023-11-27T20:53:09.065Z,0.19
2023-11-27T20:58:14.006Z,0.19
2023-11-27T21:03:20.197Z,0.14
2023-11-27T21:08:25.348Z,0.19
2023-11-27T21:13:28.527Z,0.18
2023-11-27T21:18:31.869Z,0.21
2023-11-27T21:23:36.285Z,0.19
2023-11-27T21:28:42.596Z,0.19
2023-11-27T21:33:46.278Z,0.16
2023-11-27T21:38:51.768Z,0.13
2023-11-27T21:43:54.913Z,0.07
2023-11-27T21:48:58.043Z,0.12
2023-11-27T21:54:02.463Z,0.11
2023-11-27T21:59:05.844Z,0.00
2023-11-27T22:04:09.129Z,0.06
2023-11-27T22:09:13.648Z,0.05
2023-11-27T22:14:16.623Z,0.08
2023-11-27T22:19:19.530Z,0.08
2023-11-27T22:24:23.957Z,0.00
2023-11-27T22:29:28.939Z,-0.03
2023-11-27T22:34:33.079Z,0.03
2023-11-27T22:39:37.458Z,0.02
2023-11-27T22:44:40.495Z,0.00
2023-11-27T22:49:43.462Z,-0.03
2023-11-27T22:54:47.947Z,-0.01
2023-11-27T22:59:50.912Z,0.01
2023-11-27T23:04:53.963Z,0.02
2023-11-27T23:09:59.083Z,0.03
2023-11-27T23:15:02.065Z,0.06
2023-11-27T23:20:06.142Z,0.04
2023-11-27T23:25:10.744Z,0.03
2023-11-27T23:30:14.527Z,0.01
2023-11-27T23:35:18.219Z,0.04
2023-11-27T23:40:22.874Z,0.05
2023-11-27T23:45:26.663Z,0.01
2023-11-27T23:50:29.586Z,-0.04
2023-11-27T23:55:33.973Z,-0.15
